Time;durP1;ratioP1;P1;durP2;ratioP2;P2;SDS_P1;SDS_P2;PMS_P1;PMS_P2;Temp;Humidity;BMP_temperature;BMP_pressure;BME280_temperature;BME280_humidity;BME280_pressure;Samples;Min_cycle;Max_cycle;Signal;HPM_P1;HPM_P2
2021/07/21 00:01:39;;;;;;;19.25;12.18;;;;;;;19.41;57.55;102246.22;10475634;28;20028;-81
2021/07/21 00:06:40;;;;;;;25.08;13.52;;;;;;;19.42;57.83;102255.31;10478131;28;20361;-81
2021/07/21 00:17:07;;;;;;;17.42;11.63;;;;;;;19.11;57.52;102209.50;10500835;28;20060;-80
2021/07/21 00:22:07;;;;;;;17.77;11.70;;;;;;;18.33;58.19;102098.09;10483079;28;20192;-82
2021/07/21 00:27:09;;;;;;;22.65;11.95;;;;;;;19.01;57.61;102220.97;10511715;28;20620;-82
2021/07/21 00:32:10;;;;;;;17.88;12.40;;;;;;;19.21;57.63;102251.06;10500460;28;20425;-81
2021/07/21 00:37:10;;;;;;;23.30;13.40;;;;;;;19.13;57.35;102243.06;10487676;28;20037;-81
2021/07/21 00:42:11;;;;;;;28.83;14.05;;;;;;;18.95;57.60;102213.63;10467219;28;20048;-81
2021/07/21 00:47:12;;;;;;;26.73;14.40;;;;;;;19.08;57.33;102242.88;10484375;28;20391;-83
2021/07/21 00:52:12;;;;;;;30.40;14.90;;;;;;;18.83;57.56;102207.16;10467722;28;20532;-82
2021/07/21 00:57:13;;;;;;;21.50;12.95;;;;;;;18.64;57.29;102187.81;10465944;28;20093;-82
2021/07/21 01:02:16;;;;;;;20.00;12.80;;;;;;;18.84;57.55;102244.53;10480997;28;20036;-81
2021/07/21 01:07:16;;;;;;;21.58;13.57;;;;;;;18.68;57.56;102194.53;10497751;28;20032;-81
2021/07/21 01:12:29;;;;;;;23.42;14.10;;;;;;;18.88;56.34;102311.63;10480333;28;20379;-82
2021/07/21 01:18:18;;;;;;;24.02;13.55;;;;;;;18.77;55.73;102242.66;10480272;28;20071;-81
2021/07/21 01:23:34;;;;;;;23.10;16.90;;;;;;;18.73;56.85;102246.03;10477424;28;20520;-82
2021/07/21 01:28:35;;;;;;;23.35;13.57;;;;;;;18.72;58.10;102250.69;10479654;28;20029;-81
2021/07/21 01:33:36;;;;;;;26.33;14.73;;;;;;;18.67;57.95;102247.75;10477977;28;20036;-82
2021/07/21 01:38:48;;;;;;;17.30;12.23;;;;;;;18.03;57.99;102147.19;10461390;28;20064;-82
2021/07/21 01:43:51;;;;;;;24.38;13.98;;;;;;;18.54;57.96;102243.16;10479007;28;20055;-81
2021/07/21 01:48:53;;;;;;;23.27;13.48;;;;;;;18.49;57.58;102240.22;10461900;28;20495;-82
2021/07/21 01:53:54;;;;;;;32.70;16.40;;;;;;;18.35;57.85;102236.69;10477271;28;20033;-81
2021/07/21 01:58:55;;;;;;;24.13;15.40;;;;;;;18.39;58.44;102244.50;10459645;28;20047;-80
2021/07/21 02:03:57;;;;;;;25.42;13.07;;;;;;;18.14;58.68;102215.03;10495153;28;20033;-81
2021/07/21 02:08:58;;;;;;;21.95;15.45;;;;;;;17.40;58.59;102088.34;10476091;28;20100;-81
2021/07/21 02:14:00;;;;;;;28.20;14.77;;;;;;;17.82;58.39;102162.00;10461150;28;20051;-81
2021/07/21 02:19:01;;;;;;;19.85;13.85;;;;;;;18.29;58.49;102254.00;10480238;28;20556;-80
2021/07/21 02:24:01;;;;;;;21.50;14.82;;;;;;;18.27;58.14;102249.81;10464157;28;20070;-82
2021/07/21 02:29:02;;;;;;;28.33;15.10;;;;;;;18.28;58.45;102274.28;10499086;28;20056;-81
2021/07/21 02:34:13;;;;;;;29.15;15.57;;;;;;;18.23;56.99;102254.88;10482686;28;20033;-81
2021/07/21 02:39:13;;;;;;;29.13;17.33;;;;;;;17.93;58.68;102218.88;10478189;28;20025;-81
2021/07/21 02:44:14;;;;;;;22.42;15.55;;;;;;;17.17;58.58;102091.53;10466858;28;20104;-82
2021/07/21 02:49:15;;;;;;;28.60;17.13;;;;;;;18.11;59.15;102254.69;10482342;28;20059;-81
2021/07/21 02:54:26;;;;;;;26.70;16.88;;;;;;;18.09;57.57;102258.69;10512146;28;20025;-81
2021/07/21 02:59:40;;;;;;;30.88;15.60;;;;;;;17.97;57.60;102257.69;10476462;28;20086;-80
2021/07/21 03:04:41;;;;;;;24.17;15.55;;;;;;;17.91;58.88;102231.13;10475735;28;20045;-80
2021/07/21 03:09:45;;;;;;;24.55;15.07;;;;;;;18.02;58.31;102277.06;10457306;28;20460;-81
2021/07/21 03:14:45;;;;;;;24.55;17.02;;;;;;;17.82;58.91;102258.75;10456499;28;20042;-81
2021/07/21 03:19:47;;;;;;;28.08;16.35;;;;;;;17.98;58.94;102286.78;10492563;28;20436;-80
2021/07/21 03:24:49;;;;;;;28.40;16.70;;;;;;;17.82;59.34;102249.69;10474538;28;20076;-81
2021/07/21 03:29:51;;;;;;;21.80;15.32;;;;;;;17.91;59.64;102275.81;10473806;28;20080;-81
2021/07/21 03:34:55;;;;;;;31.10;15.02;;;;;;;17.93;59.15;102275.59;10473108;28;20029;-81
2021/07/21 03:39:58;;;;;;;29.35;18.00;;;;;;;17.92;58.72;102276.66;10491955;28;20385;-81
2021/07/21 03:45:00;;;;;;;30.45;16.65;;;;;;;17.86;59.51;102283.81;10481442;28;20072;-81
2021/07/21 03:50:01;;;;;;;34.17;19.55;;;;;;;17.79;58.87;102278.34;10482261;28;20036;-80
2021/07/21 03:55:04;;;;;;;31.17;17.92;;;;;;;17.91;59.99;102275.00;10482371;28;20040;-81
2021/07/21 04:00:11;;;;;;;25.75;16.60;;;;;;;17.47;58.63;102211.56;10483261;28;20495;-81
2021/07/21 04:05:14;;;;;;;;;;;;;;;17.94;56.86;102266.34;10484674;28;20036;-81
2021/07/21 04:10:25;;;;;;;29.27;16.25;;;;;;;17.93;58.18;102283.81;10481896;28;19927;-81
2021/07/21 04:15:29;;;;;;;27.63;18.83;;;;;;;18.09;59.35;102267.78;10466232;28;20043;-81
2021/07/21 04:20:30;;;;;;;24.90;16.42;;;;;;;18.22;59.45;102263.31;10465073;28;20044;-81
2021/07/21 04:25:34;;;;;;;31.00;18.33;;;;;;;18.36;58.84;102263.06;10464693;28;20039;-81
2021/07/21 04:30:35;;;;;;;29.98;18.15;;;;;;;18.01;59.05;102204.13;10480399;28;20110;-81
2021/07/21 04:35:36;;;;;;;30.00;17.13;;;;;;;18.57;58.56;102269.31;10477290;28;20047;-81
2021/07/21 04:40:43;;;;;;;34.97;18.40;;;;;;;18.67;58.41;102272.44;10462550;28;20035;-81
2021/07/21 04:45:51;;;;;;;35.92;19.27;;;;;;;18.24;57.93;102225.56;10466029;28;20036;-81
2021/07/21 04:50:52;;;;;;;29.63;17.73;;;;;;;19.01;58.24;102287.69;10481065;28;20067;-80
2021/07/21 04:55:52;;;;;;;24.85;15.20;;;;;;;16.94;57.85;101919.59;10479572;28;20044;-81
2021/07/21 05:00:53;;;;;;;30.83;18.10;;;;;;;19.32;57.58;102173.41;10480006;28;20043;-81
2021/07/21 05:05:54;;;;;;;27.50;17.15;;;;;;;21.38;55.18;102277.41;10483761;28;20028;-80
2021/07/21 05:11:00;;;;;;;39.75;16.05;;;;;;;22.24;53.28;102292.50;10493272;28;20114;-78
2021/07/21 05:16:01;;;;;;;28.73;16.85;;;;;;;22.80;51.89;102306.66;10507362;28;20098;-82
2021/07/21 05:21:02;;;;;;;31.85;18.33;;;;;;;22.83;51.70;102260.03;10485226;28;20105;-82
2021/07/21 05:26:03;;;;;;;23.40;16.48;;;;;;;23.41;51.26;102305.91;10470587;28;20445;-83
2021/07/21 05:31:04;;;;;;;27.50;16.05;;;;;;;23.13;50.46;102199.03;10482205;28;20033;-82
2021/07/21 05:36:04;;;;;;;25.63;16.23;;;;;;;24.23;50.19;102315.53;10464541;28;20375;-82
2021/07/21 05:41:10;;;;;;;24.25;15.98;;;;;;;24.76;49.33;102316.84;10450765;28;20068;-83
2021/07/21 05:46:12;;;;;;;22.70;14.68;;;;;;;24.95;49.24;102294.28;10497791;28;20396;-82
2021/07/21 05:51:12;;;;;;;35.65;14.68;;;;;;;25.56;48.04;102313.50;10481402;28;20024;-82
2021/07/21 05:56:13;;;;;;;20.77;13.55;;;;;;;26.02;47.80;102323.06;10499572;28;20044;-82
2021/07/21 06:01:14;;;;;;;23.55;15.82;;;;;;;26.52;46.20;102315.34;10464479;28;20036;-82
2021/07/21 06:06:15;;;;;;;29.02;15.70;;;;;;;26.71;45.99;102299.00;10462808;28;20044;-82
2021/07/21 06:11:19;;;;;;;20.95;12.55;;;;;;;27.13;44.44;102316.41;10477168;28;20128;-81
2021/07/21 06:16:21;;;;;;;20.88;13.57;;;;;;;27.27;44.20;102302.78;10463370;28;20128;-81
2021/07/21 06:21:22;;;;;;;20.75;14.88;;;;;;;27.65;43.36;102324.78;10462721;28;20407;-78
2021/07/21 06:26:22;;;;;;;26.15;16.25;;;;;;;28.18;42.32;102328.94;10478714;28;20033;-78
2021/07/21 06:31:23;;;;;;;15.75;13.25;;;;;;;28.13;41.63;102289.13;10460900;28;20104;-78
2021/07/21 06:36:24;;;;;;;22.58;14.90;;;;;;;28.35;41.12;102231.09;10494052;28;20043;-78
2021/07/21 06:41:25;;;;;;;20.10;14.07;;;;;;;29.36;39.03;102329.28;10479218;28;20032;-78
2021/07/21 06:46:25;;;;;;;25.02;13.35;;;;;;;29.22;37.55;102346.94;10497665;28;20037;-79
2021/07/21 06:51:26;;;;;;;13.55;11.77;;;;;;;28.92;38.05;102309.72;10477151;28;20507;-78
2021/07/21 06:56:26;;;;;;;11.32;9.05;;;;;;;29.18;36.63;102366.22;10478312;28;20024;-78
2021/07/21 07:01:27;;;;;;;12.45;10.98;;;;;;;29.22;36.34;102321.84;10498541;28;20044;-77
2021/07/21 07:06:28;;;;;;;11.93;8.52;;;;;;;29.98;35.38;102360.31;10503244;28;20111;-77
2021/07/21 07:11:28;;;;;;;12.45;9.75;;;;;;;29.91;35.28;102325.50;10502041;28;20048;-77
2021/07/21 07:16:29;;;;;;;17.85;11.00;;;;;;;29.86;36.12;102360.72;10480694;28;20036;-77
2021/07/21 07:21:29;;;;;;;20.27;10.30;;;;;;;30.09;37.20;102308.81;10483022;28;20040;-77
2021/07/21 07:26:30;;;;;;;23.17;10.15;;;;;;;29.07;34.51;102264.19;10450950;28;20538;-76
2021/07/21 07:31:31;;;;;;;10.57;9.55;;;;;;;30.20;35.16;102367.41;10502297;28;20033;-77
2021/07/21 07:36:31;;;;;;;13.65;10.75;;;;;;;29.76;33.22;102268.66;10481415;28;20359;-78
2021/07/21 07:41:32;;;;;;;17.42;9.95;;;;;;;31.30;36.67;102382.28;10447843;28;20047;-76
2021/07/21 07:46:33;;;;;;;11.55;9.80;;;;;;;30.59;33.76;102378.44;10462110;28;20086;-76
2021/07/21 07:51:34;;;;;;;11.48;8.60;;;;;;;31.18;33.26;102370.72;10478383;28;20071;-75
2021/07/21 07:56:34;;;;;;;11.25;8.98;;;;;;;30.78;31.92;102364.53;10494359;28;20032;-75
2021/07/21 08:01:35;;;;;;;9.23;8.30;;;;;;;31.82;33.50;102366.38;10496220;28;20145;-75
2021/07/21 08:06:37;;;;;;;8.82;6.88;;;;;;;32.24;31.41;102316.03;10480170;28;20067;-75
2021/07/21 08:11:37;;;;;;;14.07;6.95;;;;;;;32.12;30.10;102369.78;10476915;28;20088;-74
2021/07/21 08:16:39;;;;;;;13.75;7.63;;;;;;;31.70;29.99;102352.84;10476402;28;20043;-74
2021/07/21 08:21:40;;;;;;;12.88;6.28;;;;;;;32.33;30.98;102375.84;10477940;28;20124;-75
2021/07/21 08:26:40;;;;;;;10.98;7.72;;;;;;;31.96;29.54;102369.22;10496157;28;20461;-75
2021/07/21 08:31:41;;;;;;;13.60;5.45;;;;;;;32.13;28.81;102343.41;10500021;28;20032;-76
2021/07/21 08:36:43;;;;;;;10.52;6.85;;;;;;;32.01;29.19;102374.75;10465723;28;20024;-74
2021/07/21 08:41:44;;;;;;;6.53;5.60;;;;;;;32.70;28.45;102374.81;10501338;28;20041;-74
2021/07/21 08:46:44;;;;;;;7.15;6.43;;;;;;;31.89;28.21;102352.81;10499217;28;20043;-76
2021/07/21 08:51:45;;;;;;;9.23;6.93;;;;;;;32.90;29.78;102331.50;10482002;28;20082;-75
2021/07/21 08:56:45;;;;;;;7.18;6.47;;;;;;;34.00;29.80;102344.25;10481363;28;20111;-75
2021/07/21 09:01:46;;;;;;;7.97;6.60;;;;;;;34.53;30.69;102377.16;10481032;28;20033;-77
2021/07/21 09:06:46;;;;;;;10.52;6.93;;;;;;;34.71;31.01;102387.28;10500451;28;20414;-76
2021/07/21 09:11:47;;;;;;;11.00;7.20;;;;;;;33.19;32.79;102394.88;10449139;28;20479;-76
2021/07/21 09:17:04;;;;;;;15.25;7.07;;;;;;;33.67;33.76;102391.50;10481481;28;20048;-76
2021/07/21 09:22:13;;;;;;;10.65;7.00;;;;;;;33.48;29.54;102381.25;10479070;28;20111;-76
2021/07/21 09:27:14;;;;;;;9.07;7.25;;;;;;;33.45;27.95;102272.34;10500220;28;20049;-77
2021/07/21 09:32:14;;;;;;;30.25;8.02;;;;;;;33.75;26.80;102329.72;10497112;28;20037;-76
2021/07/21 09:37:15;;;;;;;8.07;7.18;;;;;;;34.07;27.33;102355.91;10495986;28;20180;-77
2021/07/21 09:42:15;;;;;;;9.95;8.90;;;;;;;34.52;27.76;102381.06;10496025;28;20135;-77
2021/07/21 09:47:24;;;;;;;6.70;6.20;;;;;;;34.73;30.13;102372.91;10501031;28;20040;-77
2021/07/21 09:52:25;;;;;;;12.60;8.00;;;;;;;33.76;27.18;102266.78;10508373;28;20051;-76
2021/07/21 09:57:25;;;;;;;8.23;7.35;;;;;;;34.12;28.44;102381.06;10481945;28;20112;-76
2021/07/21 10:02:26;;;;;;;9.23;7.45;;;;;;;34.09;26.47;102372.47;10459726;28;20190;-76
2021/07/21 10:12:33;;;;;;;7.53;6.72;;;;;;;35.57;27.38;102357.63;10473974;28;20048;-75
2021/07/21 10:17:34;;;;;;;14.75;6.82;;;;;;;35.54;27.15;102298.28;10473783;28;20359;-76
2021/07/21 10:22:34;;;;;;;17.15;7.65;;;;;;;36.61;26.74;102361.31;10491775;28;20064;-76
2021/07/21 10:27:35;;;;;;;7.75;7.15;;;;;;;36.89;26.13;102364.47;10473562;28;20441;-76
2021/07/21 10:32:35;;;;;;;11.45;8.73;;;;;;;36.15;25.03;102360.16;10473231;28;20040;-77
2021/07/21 10:37:39;;;;;;;14.23;8.65;;;;;;;36.35;25.15;102375.53;10455925;28;20613;-77
2021/07/21 10:42:39;;;;;;;10.23;7.97;;;;;;;36.38;31.83;102374.81;10474377;28;20085;-77
2021/07/21 10:48:05;;;;;;;9.85;7.80;;;;;;;35.01;34.64;102344.50;10458702;28;20037;-76
2021/07/21 10:59:16;;;;;;;9.98;7.78;;;;;;;37.20;29.39;102356.44;10477322;28;20033;-76
2021/07/21 11:04:20;;;;;;;7.97;7.18;;;;;;;36.31;26.76;102245.59;10492748;28;20032;-76
2021/07/21 11:09:28;;;;;;;9.85;7.13;;;;;;;37.42;30.18;102329.00;10473694;28;20116;-76
2021/07/21 11:14:30;;;;;;;16.90;6.60;;;;;;;37.52;29.86;102243.78;10496341;28;20044;-77
2021/07/21 11:19:46;;;;;;;10.38;7.60;;;;;;;37.79;26.30;102361.06;10461290;28;20124;-77
2021/07/21 11:25:15;;;;;;;13.82;8.27;;;;;;;37.00;32.99;102329.03;10495472;28;20032;-77
2021/07/21 11:30:35;;;;;;;13.80;8.07;;;;;;;35.00;31.86;102259.19;10459436;28;20101;-77
2021/07/21 11:35:36;;;;;;;9.05;7.90;;;;;;;35.28;31.18;102344.19;10474283;28;20044;-77
2021/07/21 11:40:43;;;;;;;25.77;9.73;;;;;;;36.03;31.54;102350.44;10491653;28;20325;-77
2021/07/21 11:45:43;;;;;;;13.95;9.60;;;;;;;36.83;27.65;102358.19;10459366;28;20037;-77
2021/07/21 11:50:44;;;;;;;10.77;9.77;;;;;;;37.37;28.63;102343.34;10476346;28;20037;-76
2021/07/21 11:55:44;;;;;;;10.05;7.97;;;;;;;37.78;27.48;102348.13;10418910;28;20166;-76
2021/07/21 12:00:49;;;;;;;16.20;9.93;;;;;;;37.82;26.52;102264.25;10492825;28;20109;-80
2021/07/21 12:05:53;;;;;;;9.35;8.20;;;;;;;37.89;26.14;102342.84;10503868;28;20033;-75
2021/07/21 12:10:54;;;;;;;10.07;8.57;;;;;;;38.37;25.71;102318.63;10501717;28;20042;-79
2021/07/21 12:15:59;;;;;;;11.50;9.38;;;;;;;38.49;27.09;102338.47;10480494;28;20036;-75
2021/07/21 12:21:07;;;;;;;13.07;9.65;;;;;;;36.71;28.60;102304.47;10499174;28;20036;-77
2021/07/21 12:26:09;;;;;;;12.32;9.45;;;;;;;35.54;30.50;102310.38;10500131;28;20040;-75
2021/07/21 12:31:10;;;;;;;10.02;7.32;;;;;;;35.41;28.87;102337.56;10500536;28;20069;-77
2021/07/21 12:36:11;;;;;;;11.63;10.43;;;;;;;34.25;30.46;102211.44;10501159;28;20047;-79
2021/07/21 12:41:11;;;;;;;15.32;10.27;;;;;;;34.30;30.24;102338.97;10466724;28;20067;-76
2021/07/21 12:46:18;;;;;;;12.38;9.85;;;;;;;35.30;30.90;102341.06;10482635;28;20048;-78
2021/07/21 12:51:18;;;;;;;18.10;9.65;;;;;;;36.40;30.03;102333.00;10481567;28;20044;-79
2021/07/21 12:56:19;;;;;;;9.57;8.63;;;;;;;37.19;29.27;102339.84;10466648;28;20399;-78
2021/07/21 13:01:23;;;;;;;11.50;9.55;;;;;;;36.13;27.98;102120.81;10499478;28;20087;-77
2021/07/21 13:06:23;;;;;;;31.15;9.75;;;;;;;36.73;26.86;102115.84;10498525;28;20036;-75
2021/07/21 13:11:28;;;;;;;28.23;10.07;;;;;;;37.46;26.83;102250.84;10465844;28;20045;-76
2021/07/21 13:16:30;;;;;;;20.30;10.48;;;;;;;38.44;25.78;102329.38;10478442;28;20051;-77
2021/07/21 13:21:34;;;;;;;12.90;8.18;;;;;;;38.53;25.89;102319.59;10479998;28;20048;-76
2021/07/21 13:26:34;;;;;;;20.38;8.90;;;;;;;38.85;25.48;102339.63;10480733;28;20040;-80
2021/07/21 13:31:40;;;;;;;12.75;7.70;;;;;;;38.06;27.01;102334.16;10480483;28;20020;-82
2021/07/21 13:36:41;;;;;;;14.00;8.13;;;;;;;37.86;26.62;102332.22;10480078;28;20032;-78
2021/07/21 13:41:48;;;;;;;10.60;7.70;;;;;;;37.34;26.80;102276.25;10464731;28;20104;-77
2021/07/21 13:46:52;;;;;;;14.10;11.60;;;;;;;37.94;28.07;102342.66;10501044;28;20375;-79
2021/07/21 13:52:01;;;;;;;31.10;13.23;;;;;;;37.94;27.83;102331.34;10501400;28;20420;-77
2021/07/21 13:57:04;;;;;;;18.23;12.05;;;;;;;37.56;26.93;102290.00;10467012;28;20032;-83
2021/07/21 14:02:05;;;;;;;16.08;11.80;;;;;;;37.31;28.88;102336.25;10502426;28;20031;-79
2021/07/21 14:07:08;;;;;;;19.55;11.63;;;;;;;37.22;28.21;102342.81;10479735;28;20465;-81
2021/07/21 14:12:09;;;;;;;28.13;14.35;;;;;;;36.96;28.48;102331.69;10499923;28;20178;-82
2021/07/21 14:17:10;;;;;;;14.00;11.05;;;;;;;36.90;28.39;102338.72;10464934;28;20123;-78
2021/07/21 14:22:11;;;;;;;13.98;10.80;;;;;;;36.74;28.60;102338.47;10480713;28;20024;-79
2021/07/21 14:27:12;;;;;;;16.30;11.60;;;;;;;36.52;28.54;102296.47;10481879;28;20367;-79
2021/07/21 14:32:12;;;;;;;14.90;12.63;;;;;;;36.41;29.66;102323.38;10510103;28;20468;-79
2021/07/21 14:37:13;;;;;;;12.00;10.75;;;;;;;36.44;28.84;102323.53;10497683;28;20169;-79
2021/07/21 14:42:15;;;;;;;19.38;11.65;;;;;;;36.29;29.14;102315.66;10495798;28;20451;-78
2021/07/21 14:47:16;;;;;;;13.68;11.57;;;;;;;35.94;29.08;102283.94;10495176;28;20041;-78
2021/07/21 14:52:17;;;;;;;12.93;10.98;;;;;;;35.52;29.56;102244.25;10495581;28;20090;-79
2021/07/21 14:57:17;;;;;;;19.35;13.30;;;;;;;35.84;30.00;102305.69;10495083;28;20147;-78
2021/07/21 15:02:17;;;;;;;13.80;12.23;;;;;;;35.21;29.12;102297.97;10475534;28;20078;-79
2021/07/21 15:07:18;;;;;;;14.85;12.10;;;;;;;34.95;30.75;102316.50;10477269;28;20124;-80
2021/07/21 15:12:18;;;;;;;14.88;13.13;;;;;;;34.99;30.79;102315.84;10492783;28;20084;-79
2021/07/21 15:17:19;;;;;;;14.40;11.50;;;;;;;34.51;32.38;102282.97;10493095;28;20045;-79
2021/07/21 15:22:19;;;;;;;12.50;11.00;;;;;;;34.55;30.86;102312.94;10476043;28;20033;-79
2021/07/21 15:27:20;;;;;;;14.80;11.82;;;;;;;34.55;30.22;102289.63;10475345;28;20101;-79
2021/07/21 15:32:20;;;;;;;13.43;10.18;;;;;;;34.17;31.00;102254.41;10475053;28;20040;-78
2021/07/21 15:37:21;;;;;;;16.17;12.15;;;;;;;34.11;31.52;102302.66;10494820;28;20388;-78
2021/07/21 15:42:22;;;;;;;17.63;13.13;;;;;;;33.39;31.53;102312.13;10484136;28;20115;-79
2021/07/21 15:47:22;;;;;;;16.08;13.00;;;;;;;33.19;32.61;102303.06;10467597;28;20486;-78
2021/07/21 15:52:23;;;;;;;32.13;13.32;;;;;;;32.98;34.44;102299.88;10482290;28;20493;-78
2021/07/21 15:57:23;;;;;;;12.05;10.85;;;;;;;32.98;32.71;102288.66;10500145;28;20032;-79
2021/07/21 16:02:28;;;;;;;15.73;12.60;;;;;;;33.26;32.04;102300.63;10501480;28;20043;-79
2021/07/21 16:07:32;;;;;;;12.98;10.50;;;;;;;33.27;31.86;102298.63;10481495;28;20399;-78
2021/07/21 16:12:33;;;;;;;17.40;11.48;;;;;;;32.77;32.31;102270.59;10499355;28;20193;-78
2021/07/21 16:17:33;;;;;;;17.80;11.75;;;;;;;32.75;32.80;102292.56;10500194;28;20036;-78
2021/07/21 16:22:34;;;;;;;15.55;11.48;;;;;;;31.52;32.92;102176.47;10482629;28;20059;-78
2021/07/21 16:27:34;;;;;;;13.88;10.60;;;;;;;31.78;33.65;102297.25;10499282;28;20044;-78
2021/07/21 16:32:42;;;;;;;11.63;10.35;;;;;;;30.92;36.49;102291.88;10481822;28;20063;-78
2021/07/21 16:37:43;;;;;;;16.67;12.05;;;;;;;30.22;35.48;102284.13;10483804;28;20073;-78
2021/07/21 16:42:45;;;;;;;22.25;10.73;;;;;;;29.80;37.19;102297.69;10481806;28;20122;-78
2021/07/21 16:47:45;;;;;;;23.60;13.25;;;;;;;29.29;36.93;102294.44;10487222;28;20107;-78
2021/07/21 16:52:48;;;;;;;17.88;10.23;;;;;;;29.10;37.51;102291.50;10504145;28;20119;-78
2021/07/21 16:57:49;;;;;;;11.73;9.35;;;;;;;28.77;37.58;102277.19;10481439;28;20104;-78
2021/07/21 17:02:49;;;;;;;14.25;11.52;;;;;;;28.68;38.03;102292.84;10498214;28;20032;-78
2021/07/21 17:07:50;;;;;;;21.13;12.73;;;;;;;28.52;38.63;102298.47;10480406;28;20074;-78
2021/07/21 17:12:51;;;;;;;21.67;11.98;;;;;;;28.37;38.95;102287.38;10481458;28;20067;-78
2021/07/21 17:17:52;;;;;;;18.90;12.43;;;;;;;28.41;38.75;102302.44;10481395;28;20056;-78
2021/07/21 17:22:59;;;;;;;19.85;12.23;;;;;;;28.11;38.85;102266.28;10480558;28;20044;-79
2021/07/21 17:27:59;;;;;;;19.40;13.13;;;;;;;28.27;39.09;102284.59;10483562;28;20044;-78
2021/07/21 17:32:59;;;;;;;18.85;13.40;;;;;;;28.12;39.18;102285.50;10485345;28;20029;-78
2021/07/21 17:38:01;;;;;;;16.13;11.50;;;;;;;27.93;39.45;102290.84;10503556;28;20032;-78
2021/07/21 17:43:01;;;;;;;17.67;12.07;;;;;;;27.66;40.67;102288.31;10502356;28;20089;-78
2021/07/21 17:48:03;;;;;;;14.93;11.23;;;;;;;27.38;41.02;102281.38;10502803;28;20174;-78
2021/07/21 17:53:03;;;;;;;21.33;11.73;;;;;;;27.20;41.57;102298.59;10484835;28;20039;-78
2021/07/21 17:58:04;;;;;;;19.65;13.23;;;;;;;26.19;41.61;102140.44;10502048;28;20063;-78
2021/07/21 18:03:04;;;;;;;15.93;12.10;;;;;;;26.88;41.63;102299.63;10501230;28;20128;-78
2021/07/21 18:08:05;;;;;;;18.60;12.73;;;;;;;26.62;41.73;102312.59;10501724;28;20070;-78
2021/07/21 18:13:05;;;;;;;14.15;11.50;;;;;;;26.54;42.24;102286.16;10467503;28;20396;-78
2021/07/21 18:18:06;;;;;;;24.40;12.35;;;;;;;26.48;41.96;102291.94;10503477;28;20044;-78
2021/07/21 18:23:07;;;;;;;18.15;10.57;;;;;;;26.44;41.72;102286.09;10502125;28;20082;-78
2021/07/21 18:28:07;;;;;;;16.25;12.75;;;;;;;26.32;43.04;102299.34;10500998;28;20096;-78
2021/07/21 18:33:07;;;;;;;17.08;12.13;;;;;;;26.15;43.10;102300.38;10484077;28;20135;-78
2021/07/21 18:38:09;;;;;;;20.17;13.40;;;;;;;26.00;43.48;102303.03;10500724;28;20034;-78
2021/07/21 18:43:09;;;;;;;25.77;13.07;;;;;;;25.83;42.84;102294.88;10499187;28;20109;-77
2021/07/21 18:48:10;;;;;;;22.60;12.73;;;;;;;25.64;43.28;102304.69;10499631;28;20094;-74
2021/07/21 18:53:10;;;;;;;19.80;12.25;;;;;;;25.44;44.13;102302.59;10482466;28;20036;-75
2021/07/21 18:58:11;;;;;;;31.20;13.82;;;;;;;24.55;44.09;102174.47;10499824;28;20037;-75
2021/07/21 19:03:11;;;;;;;21.85;14.68;;;;;;;25.20;44.78;102304.84;10502357;28;20040;-75
2021/07/21 19:08:11;;;;;;;33.03;14.57;;;;;;;24.65;44.79;102226.38;10488346;28;20461;-74
2021/07/21 19:13:12;;;;;;;27.90;14.45;;;;;;;24.73;45.43;102275.78;10487141;28;20076;-75
2021/07/21 19:18:12;;;;;;;26.30;14.80;;;;;;;24.79;45.58;102305.22;10465186;28;20115;-74
2021/07/21 19:23:13;;;;;;;23.48;15.05;;;;;;;24.46;46.48;102286.81;10481382;28;20032;-75
2021/07/21 19:28:13;;;;;;;25.75;16.92;;;;;;;24.46;46.92;102317.25;10497625;28;20405;-74
2021/07/21 19:33:14;;;;;;;24.10;17.23;;;;;;;24.25;47.36;102316.13;10474877;28;20050;-74
2021/07/21 19:38:16;;;;;;;35.58;17.42;;;;;;;24.18;48.01;102322.91;10492599;28;20033;-74
2021/07/21 19:43:17;;;;;;;31.67;19.80;;;;;;;24.01;48.28;102323.78;10494390;28;20048;-74
2021/07/21 19:48:18;;;;;;;38.40;22.05;;;;;;;23.83;48.94;102324.88;10475353;28;20068;-74
2021/07/21 19:53:18;;;;;;;44.78;27.40;;;;;;;23.67;49.06;102333.97;10491791;28;20092;-75
2021/07/21 19:58:19;;;;;;;37.90;23.67;;;;;;;23.60;49.14;102344.38;10456063;28;20028;-73
2021/07/21 20:03:19;;;;;;;38.10;24.92;;;;;;;22.71;49.26;102212.28;10472829;28;20051;-74
2021/07/21 20:08:20;;;;;;;54.28;25.55;;;;;;;23.49;49.23;102348.06;10488591;28;20463;-75
2021/07/21 20:13:21;;;;;;;47.53;27.90;;;;;;;23.42;49.23;102350.97;10490686;28;20064;-74
2021/07/21 20:18:22;;;;;;;39.70;24.98;;;;;;;23.31;49.64;102349.94;10455928;28;20040;-74
2021/07/21 20:23:29;;;;;;;45.45;22.13;;;;;;;23.13;50.47;102359.28;10477030;28;20078;-79
2021/07/21 20:28:39;;;;;;;33.83;21.48;;;;;;;22.99;51.39;102352.38;10500567;28;20447;-78
2021/07/21 20:33:51;;;;;;;37.90;22.10;;;;;;;22.84;51.86;102358.38;10501384;28;20098;-78
2021/07/21 20:38:54;;;;;;;40.20;18.10;;;;;;;22.69;52.79;102364.44;10464846;28;20405;-80
2021/07/21 20:43:55;;;;;;;49.20;20.40;;;;;;;22.58;52.63;102351.47;10480609;28;20033;-79
2021/07/21 20:48:56;;;;;;;54.95;22.20;;;;;;;22.25;52.74;102321.75;10498132;28;20097;-79
2021/07/21 20:53:58;;;;;;;37.17;20.83;;;;;;;22.41;52.57;102373.47;10481450;28;20048;-79
2021/07/21 20:58:59;;;;;;;36.10;20.00;;;;;;;22.32;52.85;102358.34;10463817;28;20185;-77
2021/07/21 21:04:01;;;;;;;32.10;20.67;;;;;;;22.21;53.86;102350.94;10479144;28;20498;-80
2021/07/21 21:09:03;;;;;;;34.58;21.75;;;;;;;22.14;53.71;102353.75;10478361;28;20099;-78
2021/07/21 21:14:04;;;;;;;35.83;19.27;;;;;;;22.14;53.30;102356.50;10479570;28;20062;-78
2021/07/21 21:19:09;;;;;;;32.72;21.88;;;;;;;21.94;53.04;102334.78;10478592;28;20082;-78
2021/07/21 21:24:10;;;;;;;31.92;20.60;;;;;;;21.96;53.04;102351.97;10465360;28;20051;-79
2021/07/21 21:29:11;;;;;;;27.55;19.73;;;;;;;21.91;53.21;102367.53;10483485;28;20345;-78
2021/07/21 21:34:15;;;;;;;32.78;19.80;;;;;;;21.89;53.29;102351.25;10499143;28;20059;-79
2021/07/21 21:39:18;;;;;;;34.42;18.67;;;;;;;21.84;53.22;102364.88;10477593;28;20130;-79
2021/07/21 21:44:20;;;;;;;27.77;16.50;;;;;;;21.09;52.89;102245.00;10497449;28;20059;-79
2021/07/21 21:49:21;;;;;;;25.77;16.33;;;;;;;21.70;52.79;102363.44;10477986;28;20167;-77
2021/07/21 21:54:22;;;;;;;23.02;13.60;;;;;;;21.65;52.70;102368.81;10494807;28;20120;-79
2021/07/21 21:59:24;;;;;;;27.67;17.23;;;;;;;21.54;52.50;102346.50;10493768;28;20063;-77
2021/07/21 22:04:25;;;;;;;17.25;13.38;;;;;;;21.55;52.26;102359.19;10477885;28;20040;-76
2021/07/21 22:09:25;;;;;;;14.60;11.82;;;;;;;21.51;52.56;102357.16;10477869;28;20040;-78
2021/07/21 22:14:26;;;;;;;25.27;11.48;;;;;;;21.46;52.69;102351.50;10493108;28;20122;-77
2021/07/21 22:19:27;;;;;;;19.05;12.40;;;;;;;21.45;52.83;102358.09;10494441;28;20076;-78
2021/07/21 22:24:28;;;;;;;29.23;10.75;;;;;;;21.42;52.71;102353.88;10459402;28;20047;-78
2021/07/21 22:29:28;;;;;;;19.83;9.40;;;;;;;21.11;52.50;102314.44;10477143;28;20025;-78
2021/07/21 22:34:29;;;;;;;17.02;10.63;;;;;;;21.33;52.64;102360.75;10495245;28;20110;-78
2021/07/21 22:39:31;;;;;;;15.45;9.98;;;;;;;18.78;52.82;101945.19;10495209;28;20423;-78
2021/07/21 22:44:35;;;;;;;14.68;11.07;;;;;;;20.36;52.54;102223.09;10497836;28;20064;-78
2021/07/21 22:49:36;;;;;;;18.58;10.65;;;;;;;21.12;53.02;102359.34;10478649;28;20444;-79
2021/07/21 22:54:36;;;;;;;13.23;9.98;;;;;;;21.05;53.14;102358.59;10476001;28;20105;-78
2021/07/21 22:59:48;;;;;;;16.50;11.35;;;;;;;20.51;52.43;102274.97;10494724;28;20122;-79